Adams Cove, New York
Current Conditions -  °F | °C
As of 11:56 PM on Monday 26 Jan 2015 (Local Time) from KART Reporting Station
Overcast Overcast  
Wind Chill: -21°   Ceiling: 4500
Heat Index: -13°   Visibility: 10mi
Dew Point: -19°   Wind: 12mph
Humidity: 61%   Direction: 40°NE
Pressure: 30.02"   Gusts: NA
Location:  44.0116°N, 76.0789°W
Report Text: KART 270456Z AUTO 04010KT 10SM OVC045 M13/M19 A3002 RMK AO2 SLP177 T11281189 411001189
Loading
Personal Weather Stations






























Interactive Weather Map New forecast layout! Learn more

10-Day Weather Forecast

Advertisements
Track Severe Weather on mobile